createdAt,value
2023-04-27T00:02:14.102Z,9.45
2023-04-27T00:04:41.699Z,9.40
2023-04-27T00:07:09.332Z,9.29
2023-04-27T00:09:36.239Z,9.22
2023-04-27T00:12:03.175Z,9.24
2023-04-27T00:14:30.040Z,9.11
2023-04-27T00:16:56.945Z,9.25
2023-04-27T00:19:26.242Z,9.28
2023-04-27T00:21:53.142Z,9.30
2023-04-27T00:24:19.952Z,9.22
2023-04-27T00:26:46.793Z,9.12
2023-04-27T00:29:13.921Z,9.31
2023-04-27T00:31:41.089Z,9.34
2023-04-27T00:34:07.957Z,9.29
2023-04-27T00:36:36.218Z,9.14
2023-04-27T00:39:04.367Z,9.18
2023-04-27T00:41:31.815Z,9.14
2023-04-27T00:43:58.804Z,9.38
2023-04-27T00:46:26.456Z,9.20
2023-04-27T00:48:53.617Z,9.03
2023-04-27T00:51:20.860Z,9.13
2023-04-27T00:53:51.143Z,9.38
2023-04-27T00:56:17.969Z,9.28
2023-04-27T00:58:44.838Z,9.22
2023-04-27T01:01:12.856Z,9.12
2023-04-27T01:03:40.106Z,9.17
2023-04-27T01:06:07.773Z,8.99
2023-04-27T01:08:34.696Z,9.13
2023-04-27T01:11:03.287Z,9.24
2023-04-27T01:13:30.146Z,9.15
2023-04-27T01:15:56.999Z,8.85
2023-04-27T01:18:24.439Z,8.61
2023-04-27T01:20:51.252Z,8.63
2023-04-27T01:23:19.544Z,8.72
2023-04-27T01:25:46.356Z,8.92
2023-04-27T01:28:13.348Z,8.87
2023-04-27T01:30:40.153Z,8.72
2023-04-27T01:33:07.140Z,8.43
2023-04-27T01:35:34.043Z,8.75
2023-04-27T01:38:01.451Z,8.69
2023-04-27T01:40:29.743Z,8.75
2023-04-27T01:42:56.755Z,8.49
2023-04-27T01:45:23.615Z,8.83
2023-04-27T01:47:51.809Z,8.76
2023-04-27T01:50:18.904Z,8.41
2023-04-27T01:52:46.679Z,8.15
2023-04-27T01:55:13.692Z,8.18
2023-04-27T01:57:42.002Z,8.26
2023-04-27T02:00:09.835Z,8.19
2023-04-27T02:02:36.975Z,8.23
2023-04-27T02:05:04.465Z,8.29
2023-04-27T02:07:31.339Z,8.18
2023-04-27T02:09:58.219Z,7.89
2023-04-27T02:12:25.164Z,7.73
2023-04-27T02:14:53.459Z,7.86
2023-04-27T02:17:20.426Z,7.95
2023-04-27T02:19:47.274Z,7.92
2023-04-27T02:22:14.173Z,7.91
2023-04-27T02:24:41.245Z,7.77
2023-04-27T02:27:08.148Z,7.78
2023-04-27T02:29:39.047Z,7.63
2023-04-27T02:32:07.961Z,7.56
2023-04-27T02:34:34.850Z,7.67
2023-04-27T02:37:01.703Z,7.61
2023-04-27T02:39:28.573Z,7.62
2023-04-27T02:41:55.384Z,7.57
2023-04-27T02:44:22.314Z,7.39
2023-04-27T02:46:50.236Z,7.23
2023-04-27T02:49:18.582Z,7.17
2023-04-27T02:51:45.530Z,7.35
2023-04-27T02:54:12.445Z,7.41
2023-04-27T02:56:39.244Z,7.52
2023-04-27T02:59:06.108Z,7.64
2023-04-27T03:01:32.987Z,7.60
2023-04-27T03:03:59.983Z,7.58
2023-04-27T03:06:29.055Z,7.46
2023-04-27T03:08:55.900Z,7.38
2023-04-27T03:11:22.754Z,7.38
2023-04-27T03:13:49.608Z,7.31
2023-04-27T03:16:16.488Z,7.32
2023-04-27T03:18:43.331Z,7.24
2023-04-27T03:21:11.405Z,7.23
2023-04-27T03:23:40.404Z,7.17
2023-04-27T03:26:07.812Z,7.14
2023-04-27T03:28:35.160Z,7.05
2023-04-27T03:31:05.236Z,7.09
2023-04-27T03:33:32.117Z,7.06
2023-04-27T03:35:59.479Z,7.34
2023-04-27T03:38:26.655Z,7.39
2023-04-27T03:40:55.057Z,7.41
2023-04-27T03:43:22.395Z,7.39
2023-04-27T03:45:49.504Z,7.35
2023-04-27T03:48:16.806Z,7.20
2023-04-27T03:50:43.789Z,7.04
2023-04-27T03:53:11.549Z,7.16
2023-04-27T03:55:39.190Z,7.38
2023-04-27T03:58:07.625Z,7.38
2023-04-27T04:00:35.966Z,7.17
2023-04-27T04:03:03.383Z,7.04
2023-04-27T04:05:30.940Z,7.37
2023-04-27T04:07:58.047Z,7.32
2023-04-27T04:10:25.443Z,7.26
2023-04-27T04:12:52.635Z,7.21
2023-04-27T04:15:21.202Z,7.33
2023-04-27T04:17:49.308Z,7.30
2023-04-27T04:20:16.814Z,7.46
2023-04-27T04:22:44.261Z,7.07
2023-04-27T04:25:11.695Z,7.13
2023-04-27T04:27:38.689Z,7.23
2023-04-27T04:30:06.911Z,7.13
2023-04-27T04:32:38.009Z,7.56
2023-04-27T04:35:05.604Z,7.35
2023-04-27T04:37:36.737Z,7.48
2023-04-27T04:40:10.713Z,7.53
2023-04-27T04:42:38.062Z,7.64
2023-04-27T04:45:07.104Z,7.63
2023-04-27T04:47:35.435Z,7.57
2023-04-27T04:50:02.466Z,7.68
2023-04-27T04:52:29.622Z,7.63
2023-04-27T04:54:56.500Z,7.77
2023-04-27T04:57:23.431Z,7.50
2023-04-27T04:59:50.919Z,7.56
2023-04-27T05:02:17.841Z,7.65
2023-04-27T05:04:46.409Z,7.62
2023-04-27T05:07:15.135Z,7.57
2023-04-27T05:09:43.020Z,7.43
2023-04-27T05:12:10.225Z,7.70
2023-04-27T05:14:37.082Z,7.94
2023-04-27T05:17:03.931Z,7.55
2023-04-27T05:19:31.579Z,7.83
2023-04-27T05:21:59.935Z,8.17
2023-04-27T05:24:27.026Z,7.77
2023-04-27T05:26:54.976Z,7.90
2023-04-27T05:29:22.363Z,8.15
2023-04-27T05:31:49.420Z,8.44
2023-04-27T05:34:16.540Z,7.99
2023-04-27T05:36:43.528Z,8.29
2023-04-27T05:39:12.086Z,8.59
2023-04-27T05:41:39.260Z,9.11
2023-04-27T05:44:06.885Z,9.17
2023-04-27T05:46:34.883Z,9.36
2023-04-27T05:49:02.903Z,9.77
2023-04-27T05:51:29.991Z,9.89
2023-04-27T05:53:56.898Z,10.11
2023-04-27T05:56:25.346Z,10.47
2023-04-27T05:58:52.297Z,11.08
2023-04-27T06:01:19.302Z,10.55
2023-04-27T06:03:46.850Z,11.11
2023-04-27T06:06:14.001Z,10.15
2023-04-27T06:08:41.352Z,9.49
2023-04-27T06:11:08.336Z,9.57
2023-04-27T06:13:36.616Z,10.23
2023-04-27T06:16:03.751Z,10.07
2023-04-27T06:18:31.800Z,9.33
2023-04-27T06:21:00.236Z,9.26
2023-04-27T06:23:27.312Z,10.51
2023-04-27T06:25:54.221Z,10.29
2023-04-27T06:28:21.058Z,10.60
2023-04-27T06:30:49.298Z,11.64
2023-04-27T06:33:16.303Z,12.15
2023-04-27T06:35:44.574Z,12.68
2023-04-27T06:38:12.743Z,13.18
2023-04-27T06:40:40.370Z,13.83
2023-04-27T06:43:07.391Z,13.49
2023-04-27T06:45:34.300Z,13.48
2023-04-27T06:48:02.717Z,13.78
2023-04-27T06:50:30.529Z,14.41
2023-04-27T06:52:57.366Z,14.19
2023-04-27T06:55:24.349Z,14.20
2023-04-27T06:57:51.260Z,14.12
2023-04-27T07:00:19.062Z,14.01
2023-04-27T07:02:46.303Z,13.58
2023-04-27T07:05:14.744Z,14.66
2023-04-27T07:07:41.701Z,15.42
2023-04-27T07:10:09.352Z,15.97
2023-04-27T07:12:36.492Z,15.60
2023-04-27T07:15:04.490Z,14.56
2023-04-27T07:17:31.565Z,14.69
2023-04-27T07:19:58.538Z,15.21
2023-04-27T07:22:26.860Z,16.26
2023-04-27T07:24:53.733Z,15.30
2023-04-27T07:27:20.586Z,15.81
2023-04-27T07:29:48.235Z,15.70
2023-04-27T07:32:15.231Z,16.54
2023-04-27T07:34:52.565Z,16.56
2023-04-27T07:37:20.990Z,16.33
2023-04-27T07:39:52.115Z,16.37
2023-04-27T07:42:19.118Z,14.38
2023-04-27T07:44:46.020Z,14.33
2023-04-27T07:47:14.063Z,14.76
2023-04-27T07:49:40.959Z,15.72
2023-04-27T07:52:08.562Z,15.08
2023-04-27T07:54:35.472Z,15.11
2023-04-27T07:57:08.218Z,15.56
2023-04-27T07:59:35.082Z,14.91
2023-04-27T08:02:17.738Z,15.61
2023-04-27T08:04:45.524Z,16.06
2023-04-27T08:07:12.967Z,15.10
2023-04-27T08:09:40.019Z,15.54
2023-04-27T08:12:08.254Z,16.37
2023-04-27T08:14:35.745Z,15.58
2023-04-27T08:17:02.801Z,14.75
2023-04-27T08:19:29.688Z,14.68
2023-04-27T08:21:56.952Z,15.85
2023-04-27T08:24:24.004Z,16.00
2023-04-27T08:26:50.907Z,14.93
2023-04-27T08:29:27.685Z,15.02
2023-04-27T08:31:57.268Z,15.74
2023-04-27T08:34:24.252Z,15.90
2023-04-27T08:36:51.190Z,15.72
2023-04-27T08:39:18.567Z,16.37
2023-04-27T08:41:46.474Z,16.83
2023-04-27T08:44:13.631Z,15.51
2023-04-27T08:46:42.067Z,16.38
2023-04-27T08:49:09.983Z,16.52
2023-04-27T08:51:37.209Z,15.70
2023-04-27T08:54:04.598Z,15.81
2023-04-27T08:56:31.562Z,15.31
2023-04-27T08:59:00.822Z,15.97
2023-04-27T09:01:27.859Z,15.93
2023-04-27T09:04:02.279Z,15.98
2023-04-27T09:06:30.451Z,16.39
2023-04-27T09:08:57.374Z,16.14
2023-04-27T09:11:29.976Z,16.73
2023-04-27T09:13:58.572Z,15.96
2023-04-27T09:16:27.209Z,16.58
2023-04-27T09:18:54.638Z,17.31
2023-04-27T09:21:27.874Z,17.63
2023-04-27T09:23:55.715Z,17.57
2023-04-27T09:26:24.349Z,17.27
2023-04-27T09:28:52.617Z,17.69
2023-04-27T09:31:20.690Z,17.35
2023-04-27T09:33:56.128Z,15.96
2023-04-27T09:36:25.642Z,16.23
2023-04-27T09:38:53.211Z,16.75
2023-04-27T09:41:20.319Z,16.87
2023-04-27T09:43:47.665Z,16.90
2023-04-27T09:46:15.195Z,16.73
2023-04-27T09:48:42.736Z,17.07
2023-04-27T09:51:10.325Z,17.65
2023-04-27T09:53:43.849Z,17.43
2023-04-27T09:56:26.303Z,16.90
2023-04-27T09:59:10.411Z,15.81
2023-04-27T10:01:40.986Z,15.97
2023-04-27T10:04:28.147Z,17.17
2023-04-27T10:07:00.400Z,16.86
2023-04-27T10:09:36.303Z,17.39
2023-04-27T10:12:17.639Z,17.26
2023-04-27T10:14:56.116Z,17.90
2023-04-27T10:17:30.390Z,18.59
2023-04-27T10:19:58.981Z,18.53
2023-04-27T10:22:39.367Z,16.71
2023-04-27T10:25:17.893Z,16.75
2023-04-27T10:27:49.736Z,16.52
2023-04-27T10:30:18.726Z,17.47
2023-04-27T10:32:56.173Z,17.43
2023-04-27T10:35:32.571Z,16.27
2023-04-27T10:38:06.540Z,16.39
2023-04-27T10:40:35.857Z,16.62
2023-04-27T10:43:10.551Z,17.35
2023-04-27T10:45:37.534Z,18.20
2023-04-27T10:48:05.341Z,17.29
2023-04-27T10:50:32.472Z,17.05
2023-04-27T10:53:04.845Z,17.00
2023-04-27T10:55:32.237Z,17.87
2023-04-27T10:58:01.973Z,17.00
2023-04-27T11:00:31.071Z,16.03
2023-04-27T11:03:09.488Z,17.42
2023-04-27T11:05:36.515Z,16.92
2023-04-27T11:08:07.720Z,17.13
2023-04-27T11:10:38.184Z,17.47
2023-04-27T11:13:11.757Z,17.46
2023-04-27T11:15:46.429Z,18.20
2023-04-27T11:18:13.517Z,18.08
2023-04-27T11:20:40.415Z,17.77
2023-04-27T11:23:07.871Z,16.84
2023-04-27T11:25:35.523Z,17.91
2023-04-27T11:28:02.480Z,18.03
2023-04-27T11:30:31.526Z,17.62
2023-04-27T11:32:58.583Z,17.62
2023-04-27T11:35:34.859Z,17.71
2023-04-27T11:38:01.706Z,17.25
2023-04-27T11:40:29.057Z,17.48
2023-04-27T11:42:59.924Z,17.67
2023-04-27T11:45:30.377Z,17.51
2023-04-27T11:48:03.914Z,16.95
2023-04-27T11:50:31.300Z,17.96
2023-04-27T11:53:01.177Z,17.89
2023-04-27T11:55:28.749Z,18.35
2023-04-27T11:57:58.065Z,18.32
2023-04-27T12:00:25.539Z,18.09
2023-04-27T12:02:52.890Z,17.46
2023-04-27T12:05:21.960Z,17.09
2023-04-27T12:07:48.886Z,17.47
2023-04-27T12:10:16.218Z,17.35
2023-04-27T12:12:43.145Z,17.33
2023-04-27T12:15:11.150Z,17.22
2023-04-27T12:17:39.631Z,17.83
2023-04-27T12:20:07.564Z,17.84
2023-04-27T12:22:35.904Z,16.89
2023-04-27T12:25:02.944Z,18.36
2023-04-27T12:27:29.909Z,18.07
2023-04-27T12:29:59.485Z,17.49
2023-04-27T12:32:27.817Z,17.03
2023-04-27T12:34:54.623Z,17.40
2023-04-27T12:37:22.183Z,17.55
2023-04-27T12:39:50.474Z,18.07
2023-04-27T12:42:19.874Z,16.83
2023-04-27T12:44:47.486Z,18.03
2023-04-27T12:47:27.824Z,18.56
2023-04-27T12:50:01.274Z,17.70
2023-04-27T12:52:28.859Z,18.75
2023-04-27T12:54:59.368Z,18.45
2023-04-27T12:57:26.723Z,17.62
2023-04-27T12:59:53.607Z,18.16
2023-04-27T13:02:20.772Z,18.69
2023-04-27T13:04:47.888Z,18.52
2023-04-27T13:07:14.955Z,18.55
2023-04-27T13:09:42.171Z,18.37
2023-04-27T13:12:10.582Z,19.17
2023-04-27T13:14:37.471Z,19.13
2023-04-27T13:17:04.340Z,19.35
2023-04-27T13:19:31.825Z,18.77
2023-04-27T13:21:58.662Z,18.52
2023-04-27T13:24:25.950Z,18.88
2023-04-27T13:26:52.854Z,19.23
2023-04-27T13:29:21.129Z,19.37
2023-04-27T13:31:48.259Z,20.19
2023-04-27T13:34:15.378Z,20.40
2023-04-27T13:36:42.519Z,20.09
2023-04-27T13:39:09.335Z,18.82
2023-04-27T13:41:36.218Z,18.68
2023-04-27T13:44:03.078Z,19.40
2023-04-27T13:46:31.446Z,19.51
2023-04-27T13:48:58.376Z,19.48
2023-04-27T13:51:26.694Z,19.78
2023-04-27T13:53:53.623Z,20.45
2023-04-27T13:56:20.982Z,20.66
2023-04-27T13:58:47.842Z,18.43
2023-04-27T14:01:14.701Z,19.58
2023-04-27T14:03:43.888Z,18.33
2023-04-27T14:06:11.059Z,18.48
2023-04-27T14:08:37.987Z,19.53
2023-04-27T14:11:06.043Z,19.39
2023-04-27T14:13:32.911Z,20.06
2023-04-27T14:15:59.905Z,20.22
2023-04-27T14:18:32.159Z,19.61
2023-04-27T14:21:01.107Z,19.96
2023-04-27T14:23:28.137Z,19.75
2023-04-27T14:25:54.982Z,19.71
2023-04-27T14:28:21.915Z,19.84
2023-04-27T14:30:48.768Z,19.34
2023-04-27T14:33:15.743Z,19.87
2023-04-27T14:35:42.701Z,19.46
2023-04-27T14:38:11.481Z,20.01
2023-04-27T14:40:38.341Z,19.97
2023-04-27T14:43:05.261Z,19.52
2023-04-27T14:45:43.609Z,19.95
2023-04-27T14:48:17.557Z,19.82
2023-04-27T14:50:44.460Z,18.31
2023-04-27T14:53:12.760Z,18.48
2023-04-27T14:55:41.151Z,19.13
2023-04-27T14:58:08.167Z,19.41
2023-04-27T15:00:35.058Z,19.27
2023-04-27T15:03:02.089Z,19.27
2023-04-27T15:05:29.126Z,19.55
2023-04-27T15:07:56.260Z,19.62
2023-04-27T15:10:24.589Z,19.94
2023-04-27T15:12:51.436Z,19.83
2023-04-27T15:15:18.566Z,20.16
2023-04-27T15:17:45.553Z,18.59
2023-04-27T15:20:14.194Z,19.24
2023-04-27T15:22:41.276Z,19.19
2023-04-27T15:25:09.064Z,18.74
2023-04-27T15:27:37.520Z,18.42
2023-04-27T15:30:05.459Z,18.76
2023-04-27T15:32:32.527Z,18.39
2023-04-27T15:34:59.790Z,18.78
2023-04-27T15:37:30.240Z,18.65
2023-04-27T15:39:57.511Z,18.29
2023-04-27T15:42:24.548Z,18.74
2023-04-27T15:44:52.886Z,18.58
2023-04-27T15:47:19.758Z,18.45
2023-04-27T15:49:56.625Z,18.34
2023-04-27T15:52:24.522Z,18.92
2023-04-27T15:54:51.418Z,18.07
2023-04-27T15:57:18.761Z,18.82
2023-04-27T15:59:45.987Z,19.21
2023-04-27T16:02:14.286Z,18.89
2023-04-27T16:04:41.250Z,18.25
2023-04-27T16:07:08.233Z,18.29
2023-04-27T16:09:35.416Z,18.18
2023-04-27T16:12:04.081Z,18.53
2023-04-27T16:14:31.049Z,19.07
2023-04-27T16:17:02.677Z,18.33
2023-04-27T16:19:31.177Z,18.82
2023-04-27T16:21:58.054Z,18.12
2023-04-27T16:24:25.517Z,18.52
2023-04-27T16:26:52.425Z,18.10
2023-04-27T16:29:19.297Z,18.31
2023-04-27T16:31:49.743Z,17.96
2023-04-27T16:34:16.744Z,18.24
2023-04-27T16:36:46.731Z,17.70
2023-04-27T16:39:14.285Z,18.09
2023-04-27T16:41:42.337Z,18.07
2023-04-27T16:44:09.253Z,17.97
2023-04-27T16:46:36.503Z,18.22
2023-04-27T16:49:04.181Z,17.76
2023-04-27T16:51:31.472Z,18.12
2023-04-27T16:53:59.960Z,17.93
2023-04-27T16:56:27.450Z,18.61
2023-04-27T16:58:54.440Z,18.49
2023-04-27T17:01:22.320Z,18.45
2023-04-27T17:03:49.340Z,18.49
2023-04-27T17:06:16.599Z,18.68
2023-04-27T17:08:43.496Z,17.82
2023-04-27T17:11:12.206Z,17.41
2023-04-27T17:13:39.076Z,17.41
2023-04-27T17:16:06.872Z,18.23
2023-04-27T17:18:34.087Z,17.93
2023-04-27T17:21:01.016Z,18.03
2023-04-27T17:23:27.863Z,18.14
2023-04-27T17:25:54.738Z,18.20
2023-04-27T17:28:23.024Z,17.99
2023-04-27T17:30:49.861Z,18.32
2023-04-27T17:33:17.026Z,17.86
2023-04-27T17:35:44.503Z,17.32
2023-04-27T17:38:11.949Z,17.91
2023-04-27T17:40:38.858Z,18.06
2023-04-27T17:43:05.707Z,17.87
2023-04-27T17:45:34.040Z,17.41
2023-04-27T17:48:01.171Z,17.85
2023-04-27T17:50:28.832Z,17.06
2023-04-27T17:52:55.741Z,17.49
2023-04-27T17:55:23.336Z,17.03
2023-04-27T17:57:50.522Z,17.35
2023-04-27T18:00:18.307Z,17.21
2023-04-27T18:02:48.563Z,17.55
2023-04-27T18:05:15.674Z,17.69
2023-04-27T18:07:42.697Z,17.50
2023-04-27T18:10:09.898Z,17.36
2023-04-27T18:12:36.917Z,16.68
2023-04-27T18:15:06.257Z,16.98
2023-04-27T18:17:34.717Z,17.34
2023-04-27T18:20:09.364Z,16.83
2023-04-27T18:22:38.582Z,17.28
2023-04-27T18:25:06.418Z,17.18
2023-04-27T18:27:33.273Z,17.23
2023-04-27T18:30:00.156Z,16.79
2023-04-27T18:32:27.067Z,16.62
2023-04-27T18:34:54.051Z,16.94
2023-04-27T18:37:22.475Z,16.88
2023-04-27T18:39:51.433Z,16.84
2023-04-27T18:42:20.212Z,16.67
2023-04-27T18:44:47.402Z,16.23
2023-04-27T18:47:16.278Z,16.76
2023-04-27T18:49:43.373Z,16.63
2023-04-27T18:52:11.592Z,16.14
2023-04-27T18:54:39.954Z,16.25
2023-04-27T18:57:06.931Z,16.22
2023-04-27T18:59:33.887Z,16.38
2023-04-27T19:02:01.002Z,15.89
2023-04-27T19:04:28.247Z,15.99
2023-04-27T19:06:55.458Z,15.90
2023-04-27T19:09:22.319Z,16.35
2023-04-27T19:11:59.966Z,15.71
2023-04-27T19:14:30.851Z,15.95
2023-04-27T19:16:57.931Z,16.17
2023-04-27T19:19:25.894Z,16.15
2023-04-27T19:21:52.938Z,16.11
2023-04-27T19:24:20.024Z,15.76
2023-04-27T19:26:48.422Z,15.68
2023-04-27T19:29:17.220Z,15.67
2023-04-27T19:31:44.629Z,15.51
2023-04-27T19:34:11.666Z,15.54
2023-04-27T19:36:38.576Z,15.30
2023-04-27T19:39:05.398Z,14.88
2023-04-27T19:41:32.382Z,15.13
2023-04-27T19:43:59.339Z,14.97
2023-04-27T19:46:27.619Z,14.82
2023-04-27T19:48:54.512Z,14.72
2023-04-27T19:51:21.492Z,14.59
2023-04-27T19:53:48.435Z,14.56
2023-04-27T19:56:15.260Z,14.53
2023-04-27T19:58:42.277Z,14.58
2023-04-27T20:01:10.342Z,14.27
2023-04-27T20:03:40.182Z,14.42
2023-04-27T20:06:07.284Z,14.19
2023-04-27T20:08:34.251Z,14.09
2023-04-27T20:11:01.199Z,13.73
2023-04-27T20:13:28.024Z,13.82
2023-04-27T20:15:55.069Z,13.88
2023-04-27T20:18:21.925Z,14.05
2023-04-27T20:20:50.259Z,14.21
2023-04-27T20:23:17.168Z,14.23
2023-04-27T20:25:44.170Z,14.29
2023-04-27T20:28:11.085Z,14.26
2023-04-27T20:30:38.074Z,14.00
2023-04-27T20:33:05.041Z,14.10
2023-04-27T20:35:31.950Z,13.98
2023-04-27T20:38:00.473Z,13.87
2023-04-27T20:40:27.485Z,14.11
2023-04-27T20:42:54.470Z,13.98
2023-04-27T20:45:21.717Z,13.80
2023-04-27T20:47:48.986Z,13.75
2023-04-27T20:50:16.074Z,13.40
2023-04-27T20:52:43.082Z,13.82
2023-04-27T20:55:11.310Z,13.42
2023-04-27T20:57:38.142Z,13.66
2023-04-27T21:00:06.243Z,13.27
2023-04-27T21:02:33.112Z,13.24
2023-04-27T21:05:00.239Z,13.49
2023-04-27T21:07:27.129Z,13.50
2023-04-27T21:09:53.968Z,13.66
2023-04-27T21:12:22.907Z,13.67
2023-04-27T21:14:49.856Z,13.70
2023-04-27T21:17:16.711Z,13.85
2023-04-27T21:19:43.571Z,13.69
2023-04-27T21:22:10.475Z,13.73
2023-04-27T21:24:37.325Z,13.69
2023-04-27T21:27:04.206Z,13.81
2023-04-27T21:29:34.755Z,14.05
2023-04-27T21:32:01.778Z,14.21
2023-04-27T21:34:29.144Z,14.24
2023-04-27T21:36:56.024Z,14.19
2023-04-27T21:39:22.916Z,13.81
2023-04-27T21:41:49.744Z,13.67
2023-04-27T21:44:16.924Z,14.36
2023-04-27T21:46:45.645Z,14.29
2023-04-27T21:49:12.510Z,14.32
2023-04-27T21:51:39.465Z,13.92
2023-04-27T21:54:06.334Z,14.09
2023-04-27T21:56:33.274Z,14.43
2023-04-27T21:59:00.390Z,14.14
2023-04-27T22:01:27.455Z,14.35
2023-04-27T22:03:56.358Z,14.23
2023-04-27T22:06:23.453Z,14.48
2023-04-27T22:08:50.325Z,14.51
2023-04-27T22:11:17.253Z,14.11
2023-04-27T22:13:44.280Z,14.30
2023-04-27T22:16:13.145Z,14.35
2023-04-27T22:18:40.668Z,14.19
2023-04-27T22:21:10.125Z,13.75
2023-04-27T22:23:36.968Z,12.97
2023-04-27T22:26:04.100Z,13.12
2023-04-27T22:28:30.958Z,13.41
2023-04-27T22:30:58.099Z,13.30
2023-04-27T22:33:24.881Z,13.16
2023-04-27T22:35:51.784Z,13.10
2023-04-27T22:38:20.074Z,13.21
2023-04-27T22:40:46.884Z,12.99
2023-04-27T22:43:13.736Z,13.13
2023-04-27T22:45:40.550Z,12.94
2023-04-27T22:48:07.969Z,13.15
2023-04-27T22:50:35.236Z,12.79
2023-04-27T22:53:02.137Z,12.83
2023-04-27T22:55:30.507Z,13.05
2023-04-27T22:57:57.333Z,12.84
2023-04-27T23:00:24.258Z,12.49
2023-04-27T23:02:51.294Z,12.57
2023-04-27T23:05:18.207Z,12.39
2023-04-27T23:07:46.321Z,12.13
2023-04-27T23:10:15.231Z,12.15
2023-04-27T23:12:43.677Z,12.70
2023-04-27T23:15:11.425Z,13.10
2023-04-27T23:17:38.457Z,13.00
2023-04-27T23:20:11.164Z,13.22
2023-04-27T23:22:44.064Z,12.92
2023-04-27T23:25:11.396Z,13.15
2023-04-27T23:27:38.198Z,12.99
2023-04-27T23:30:08.286Z,13.00
2023-04-27T23:32:36.724Z,12.68
2023-04-27T23:35:03.938Z,12.79
2023-04-27T23:37:30.781Z,12.63
2023-04-27T23:39:57.796Z,12.79
2023-04-27T23:42:24.711Z,12.88
2023-04-27T23:44:53.128Z,13.09
2023-04-27T23:47:21.406Z,13.30
2023-04-27T23:49:48.192Z,13.10
2023-04-27T23:52:14.994Z,13.29
2023-04-27T23:54:41.839Z,13.64
2023-04-27T23:57:08.739Z,13.45
2023-04-27T23:59:36.051Z,13.18
